| Date | Time | Temp. (oF) | Dew Point (oF) | Rel. Hum. (%) | Press. (in.) | Wind Dir. | Wind Speed (mph) | Hourly Rainfall (in.) |
|
|---|---|---|---|---|---|---|---|---|---|
| 1 | 07/08 | 00:00 | 83 | 72 | 71 | 29.98 | SSW | 0 | 0.00 |
| 2 | 07/07 | 23:00 | 83 | 72 | 72 | 29.97 | SSW | 2 | 0.00 |
| 3 | 07/07 | 22:00 | 83 | 75 | 79 | 29.96 | SSW | 0 | 0.00 |
| 4 | 07/07 | 21:00 | 86 | 74 | 68 | 29.94 | SSW | 0 | 0.00 |
| 5 | 07/07 | 20:00 | 92 | 74 | 58 | 29.93 | SSW | 0 | 0.00 |
| 6 | 07/07 | 19:00 | 95 | 72 | 48 | 29.93 | S | 1 | 0.00 |
| 7 | 07/07 | 18:00 | 97 | 71 | 45 | 29.94 | SSW | 4 | 0.00 |
| 8 | 07/07 | 17:00 | 96 | 70 | 44 | 29.95 | S | 1 | 0.00 |
| 9 | 07/07 | 16:00 | 98 | 71 | 43 | 29.96 | SSE | 2 | 0.00 |
| 10 | 07/07 | 15:00 | 99 | 69 | 39 | 29.98 | SE | 2 | 0.00 |
| 11 | 07/07 | 14:00 | 99 | 71 | 42 | 29.99 | NE | 3 | 0.00 |
| 12 | 07/07 | 13:00 | 94 | 70 | 47 | 30.00 | NNW | 4 | 0.00 |
| 13 | 07/07 | 12:00 | 95 | 71 | 47 | 30.01 | E | 3 | 0.00 |
| 14 | 07/07 | 11:00 | 93 | 71 | 50 | 30.02 | NNE | 9 | 0.00 |
| 15 | 07/07 | 10:00 | 89 | 71 | 56 | 30.03 | NE | 4 | 0.00 |
| 16 | 07/07 | 09:00 | 87 | 73 | 65 | 30.04 | NW | 3 | 0.00 |
| 17 | 07/07 | 08:00 | 79 | 73 | 82 | 30.03 | WNW | 0 | 0.00 |
| 18 | 07/07 | 07:00 | 74 | 71 | 91 | 30.02 | WSW | 0 | 0.00 |
| 19 | 07/07 | 06:00 | 73 | 69 | 90 | 30.02 | WSW | 0 | 0.00 |
| 20 | 07/07 | 05:00 | 74 | 70 | 88 | 30.01 | WSW | 0 | 0.00 |
| 21 | 07/07 | 04:00 | 74 | 69 | 86 | 30.00 | W | 0 | 0.00 |
| 22 | 07/07 | 03:00 | 77 | 69 | 78 | 30.00 | NW | 0 | 0.00 |
| 23 | 07/07 | 02:00 | 79 | 70 | 75 | 30.00 | NW | 0 | 0.00 |
| 24 | 07/07 | 01:00 | 79 | 70 | 76 | 29.99 | WSW | 0 | 0.00 |